Phoenix, Arizona
Traffic Map
Current Weather Conditions
Phoenix, Arizona
Clear
Clear
18°
Feels Like: 18°
Wind Chill: 18° Ceiling: Unl
Heat Index: 18° Visibility: 10mi
Dew Point: Wind: 3mph
Humidity: 31% Direction: 100° (E)
Pressure: 30.01in Gusts: 0mph
Raw Report DataKPHX 210951Z 10003KT 10SM CLR 18/01 A3001 RMK AO2 SLP151 T01780006
Traffic Incident Summary
Active as of:
Severity:
Category:
InformationThere was an issue retrieving the traffic information for this location. Please try a different location or try again shortly.
Advertisements